aviador You're here:

KPHP Decoded Metar

PHILIP in SD, USA
Report Time2018-05-28 06:55:00
UTC Time2018-05-28 07:55:03
Flight Rules vfr VFR
Wind290° at 09 kt
W.Decomp.*RWY 30: 8.4 kt HW 3.2 kt LCW
RWY 23: 5.9 kt HW 6.8 kt RCW
W.Rank290° ranks 5
Current wind is above 290° avg. (8.2)
Visibility9999 m
Phenomena:N/A
Clouds:Few 120 Hf
CeilingNone
Temp16°C (ISA +5)
Dew Point16°C (100% RH)
AAT14.7°C
QNH1013 hPa
Density Alt3,091 ft
Elevation2,205 ft
Report Wrong Elevation
Raw Report
KPHP 280655Z AUTO 29009KT 10SM FEW120 16/16 A2991 RMK AO2 RAE04
SLP111 P0000 T01610161 402940156 $=

Extra information for KPHP:More info

Metar Taf Metar & Taf Last 4 Metars F.Rules Stats Wind Profile Meteogram Temp Stats Airport Information Weather charts Add Link Nearby VenuesMetar ALERT Operation Metar Decoded Social comments

AIRNAV info for KPHP